createdAt,value
2023-03-03T00:01:21.815Z,18.58
2023-03-03T00:03:49.936Z,16.58
2023-03-03T00:06:18.132Z,16.92
2023-03-03T00:08:46.544Z,16.25
2023-03-03T00:11:15.146Z,19.60
2023-03-03T00:13:48.197Z,14.95
2023-03-03T00:16:23.701Z,16.10
2023-03-03T00:18:52.568Z,15.48
2023-03-03T00:21:30.650Z,14.73
2023-03-03T00:24:18.976Z,12.00
2023-03-03T00:26:48.816Z,13.85
2023-03-03T00:29:32.555Z,13.57
2023-03-03T00:32:19.206Z,12.05
2023-03-03T00:34:47.396Z,11.85
2023-03-03T00:37:29.217Z,16.40
2023-03-03T00:40:16.251Z,11.75
2023-03-03T00:42:48.212Z,11.88
2023-03-03T00:45:27.460Z,14.55
2023-03-03T00:47:57.635Z,11.38
2023-03-03T00:50:34.869Z,10.52
2023-03-03T00:53:07.971Z,15.73
2023-03-03T00:55:37.286Z,11.27
2023-03-03T00:58:05.885Z,13.02
2023-03-03T01:00:34.662Z,10.27
2023-03-03T01:03:06.008Z,11.02
2023-03-03T01:05:35.188Z,12.30
2023-03-03T01:08:04.397Z,13.85
2023-03-03T01:10:37.398Z,8.55
2023-03-03T01:13:06.655Z,11.23
2023-03-03T01:15:35.157Z,13.70
2023-03-03T01:18:05.187Z,12.77
2023-03-03T01:20:33.429Z,14.77
2023-03-03T01:23:01.600Z,8.98
2023-03-03T01:25:29.977Z,10.43
2023-03-03T01:27:58.608Z,11.20
2023-03-03T01:30:27.764Z,12.25
2023-03-03T01:32:56.502Z,13.10
2023-03-03T01:35:26.114Z,10.02
2023-03-03T01:37:54.598Z,15.40
2023-03-03T01:40:25.062Z,12.75
2023-03-03T01:42:53.445Z,9.05
2023-03-03T01:45:23.799Z,12.68
2023-03-03T01:47:58.990Z,11.20
2023-03-03T01:50:37.032Z,10.35
2023-03-03T01:53:07.879Z,10.60
2023-03-03T01:55:40.677Z,11.23
2023-03-03T01:58:12.556Z,14.93
2023-03-03T02:00:43.432Z,11.73
2023-03-03T02:03:12.300Z,8.60
2023-03-03T02:05:43.189Z,10.93
2023-03-03T02:08:15.092Z,15.57
2023-03-03T02:10:44.754Z,12.70
2023-03-03T02:13:13.935Z,15.68
2023-03-03T02:15:42.209Z,9.93
2023-03-03T02:18:14.286Z,12.10
2023-03-03T02:20:55.068Z,9.68
2023-03-03T02:23:34.356Z,12.13
2023-03-03T02:26:10.982Z,11.93
2023-03-03T02:28:40.112Z,14.23
2023-03-03T02:31:13.575Z,15.35
2023-03-03T02:33:42.979Z,13.13
2023-03-03T02:36:14.971Z,15.82
2023-03-03T02:38:48.618Z,11.15
2023-03-03T02:41:28.841Z,11.52
2023-03-03T02:44:01.481Z,12.88
2023-03-03T02:46:30.667Z,11.32
2023-03-03T02:48:59.057Z,12.85
2023-03-03T02:51:27.726Z,12.50
2023-03-03T02:53:55.824Z,11.48
2023-03-03T02:56:25.546Z,13.93
2023-03-03T02:58:53.810Z,13.75
2023-03-03T03:01:22.461Z,11.82
2023-03-03T03:03:50.645Z,11.68
2023-03-03T03:06:18.997Z,12.02
2023-03-03T03:08:47.304Z,16.80
2023-03-03T03:11:15.817Z,9.70
2023-03-03T03:13:45.303Z,14.93
2023-03-03T03:16:13.398Z,15.75
2023-03-03T03:18:41.929Z,12.52
2023-03-03T03:21:12.267Z,14.45
2023-03-03T03:23:41.638Z,17.42
2023-03-03T03:26:10.008Z,12.48
2023-03-03T03:28:38.346Z,16.40
2023-03-03T03:31:09.336Z,14.23
2023-03-03T03:33:38.299Z,14.68
2023-03-03T03:36:07.406Z,13.20
2023-03-03T03:38:37.614Z,13.75
2023-03-03T03:41:07.345Z,13.95
2023-03-03T03:43:36.029Z,15.63
2023-03-03T03:46:04.298Z,17.23
2023-03-03T03:48:34.371Z,15.73
2023-03-03T03:51:02.569Z,16.90
2023-03-03T03:53:31.052Z,14.00
2023-03-03T03:55:59.248Z,14.40
2023-03-03T03:58:27.591Z,14.18
2023-03-03T04:00:57.074Z,17.92
2023-03-03T04:03:25.308Z,15.35
2023-03-03T04:05:55.604Z,17.67
2023-03-03T04:08:23.728Z,13.23
2023-03-03T04:10:51.799Z,13.50
2023-03-03T04:13:19.923Z,12.88
2023-03-03T04:15:48.471Z,19.95
2023-03-03T04:18:16.902Z,15.43
2023-03-03T04:20:45.024Z,14.13
2023-03-03T04:23:15.111Z,14.98
2023-03-03T04:25:43.188Z,15.10
2023-03-03T04:28:11.516Z,16.02
2023-03-03T04:30:39.867Z,15.10
2023-03-03T04:33:08.130Z,1.10
2023-03-03T04:35:36.587Z,15.63
2023-03-03T04:38:05.057Z,19.50
2023-03-03T04:40:34.648Z,12.40
2023-03-03T04:43:03.168Z,13.48
2023-03-03T04:45:31.468Z,14.70
2023-03-03T04:47:59.620Z,12.38
2023-03-03T04:50:27.916Z,13.02
2023-03-03T04:52:56.066Z,15.35
2023-03-03T04:55:24.453Z,16.65
2023-03-03T04:57:53.922Z,12.55
2023-03-03T05:00:22.753Z,15.98
2023-03-03T05:02:51.354Z,15.18
2023-03-03T05:05:19.685Z,15.63
2023-03-03T05:07:47.853Z,14.93
2023-03-03T05:10:16.249Z,12.13
2023-03-03T05:12:45.568Z,16.25
2023-03-03T05:15:15.050Z,15.25
2023-03-03T05:17:43.370Z,13.05
2023-03-03T05:20:13.609Z,16.48
2023-03-03T05:22:41.741Z,12.48
2023-03-03T05:25:12.835Z,16.27
2023-03-03T05:27:40.944Z,15.68
2023-03-03T05:30:10.451Z,12.35
2023-03-03T05:32:40.218Z,14.73
2023-03-03T05:35:08.949Z,14.77
2023-03-03T05:37:37.050Z,11.75
2023-03-03T05:40:05.857Z,15.07
2023-03-03T05:42:34.025Z,15.73
2023-03-03T05:45:02.315Z,18.35
2023-03-03T05:47:31.225Z,13.90
2023-03-03T05:50:01.067Z,13.13
2023-03-03T05:52:29.301Z,14.18
2023-03-03T05:54:57.441Z,16.70
2023-03-03T05:57:25.544Z,14.57
2023-03-03T05:59:53.619Z,14.40
2023-03-03T06:02:21.776Z,16.15
2023-03-03T06:04:49.839Z,16.00
2023-03-03T06:07:19.313Z,15.50
2023-03-03T06:09:47.704Z,13.38
2023-03-03T06:12:15.807Z,14.95
2023-03-03T06:14:44.117Z,16.30
2023-03-03T06:17:12.688Z,15.70
2023-03-03T06:19:41.994Z,17.00
2023-03-03T06:22:10.492Z,16.67
2023-03-03T06:24:40.030Z,16.35
2023-03-03T06:27:08.393Z,17.33
2023-03-03T06:29:36.543Z,16.63
2023-03-03T06:32:05.030Z,14.15
2023-03-03T06:34:33.568Z,15.88
2023-03-03T06:37:01.676Z,17.55
2023-03-03T06:39:29.993Z,14.43
2023-03-03T06:41:59.447Z,18.83
2023-03-03T06:44:28.994Z,13.15
2023-03-03T06:46:58.839Z,18.08
2023-03-03T06:49:27.009Z,15.10
2023-03-03T06:51:55.501Z,13.57
2023-03-03T06:54:30.893Z,15.23
2023-03-03T06:57:05.972Z,20.75
2023-03-03T06:59:34.077Z,18.80
2023-03-03T07:02:02.184Z,18.17
2023-03-03T07:04:33.574Z,19.00
2023-03-03T07:07:09.417Z,14.05
2023-03-03T07:09:37.534Z,15.90
2023-03-03T07:12:14.523Z,14.93
2023-03-03T07:14:44.565Z,16.88
2023-03-03T07:17:17.345Z,14.27
2023-03-03T07:19:45.908Z,15.95
2023-03-03T07:22:17.233Z,14.13
2023-03-03T07:24:47.150Z,16.85
2023-03-03T07:27:23.972Z,14.02
2023-03-03T07:29:54.388Z,16.38
2023-03-03T07:32:29.469Z,14.88
2023-03-03T07:34:58.300Z,16.40
2023-03-03T07:37:38.546Z,16.50
2023-03-03T07:40:28.811Z,17.63
2023-03-03T07:42:58.647Z,14.63
2023-03-03T07:45:30.553Z,16.95
2023-03-03T07:48:03.857Z,15.20
2023-03-03T07:50:32.662Z,20.17
2023-03-03T07:53:02.365Z,15.20
2023-03-03T07:55:36.367Z,16.50
2023-03-03T07:58:23.660Z,13.57
2023-03-03T08:01:27.811Z,11.82
2023-03-03T08:03:56.875Z,16.67
2023-03-03T08:06:40.399Z,16.33
2023-03-03T08:09:40.892Z,18.83
2023-03-03T08:12:35.887Z,14.35
2023-03-03T08:15:25.850Z,13.15
2023-03-03T08:17:57.039Z,18.40
2023-03-03T08:20:47.661Z,16.17
2023-03-03T08:23:16.962Z,14.15
2023-03-03T08:25:45.673Z,12.38
2023-03-03T08:28:14.120Z,13.57
2023-03-03T08:30:44.156Z,13.55
2023-03-03T08:33:13.199Z,16.38
2023-03-03T08:35:42.196Z,13.98
2023-03-03T08:38:11.059Z,18.02
2023-03-03T08:40:39.583Z,12.75
2023-03-03T08:43:08.220Z,14.70
2023-03-03T08:45:37.380Z,16.45
2023-03-03T08:48:07.778Z,17.20
2023-03-03T08:50:36.249Z,15.75
2023-03-03T08:53:04.456Z,14.90
2023-03-03T08:55:33.092Z,13.38
2023-03-03T08:58:01.253Z,12.48
2023-03-03T09:00:30.049Z,16.15
2023-03-03T09:02:58.227Z,16.83
2023-03-03T09:05:28.614Z,12.52
2023-03-03T09:07:57.264Z,13.43
2023-03-03T09:10:31.179Z,9.68
2023-03-03T09:13:03.618Z,13.95
2023-03-03T09:15:34.176Z,18.25
2023-03-03T09:18:14.972Z,14.02
2023-03-03T09:20:45.731Z,14.85
2023-03-03T09:23:42.646Z,15.02
2023-03-03T09:26:27.118Z,12.80
2023-03-03T09:28:56.610Z,14.70
2023-03-03T09:31:28.637Z,15.65
2023-03-03T09:33:59.376Z,17.30
2023-03-03T09:36:31.981Z,12.30
2023-03-03T09:39:01.078Z,11.55
2023-03-03T09:41:58.953Z,13.88
2023-03-03T09:44:52.148Z,15.75
2023-03-03T09:47:36.343Z,16.90
2023-03-03T09:50:19.989Z,17.00
2023-03-03T09:52:55.257Z,12.98
2023-03-03T09:55:37.633Z,12.48
2023-03-03T09:58:23.175Z,12.13
2023-03-03T10:01:02.084Z,12.40
2023-03-03T10:03:56.749Z,13.63
2023-03-03T10:06:30.489Z,11.77
2023-03-03T10:09:16.665Z,14.23
2023-03-03T10:11:51.966Z,10.20
2023-03-03T10:14:50.505Z,10.02
2023-03-03T10:17:42.838Z,10.77
2023-03-03T10:20:49.446Z,11.65
2023-03-03T10:23:23.362Z,9.82
2023-03-03T10:26:00.937Z,9.95
2023-03-03T10:28:53.781Z,14.00
2023-03-03T10:31:33.410Z,12.23
2023-03-03T10:34:12.747Z,11.15
2023-03-03T10:36:50.995Z,14.20
2023-03-03T10:39:48.832Z,15.02
2023-03-03T10:42:37.225Z,14.20
2023-03-03T10:45:37.936Z,13.20
2023-03-03T10:48:46.639Z,12.52
2023-03-03T10:51:28.217Z,15.68
2023-03-03T10:54:08.339Z,13.40
2023-03-03T10:56:53.432Z,17.33
2023-03-03T10:59:42.028Z,12.15
2023-03-03T11:02:23.931Z,11.98
2023-03-03T11:05:07.167Z,15.63
2023-03-03T11:07:41.595Z,13.48
2023-03-03T11:10:25.812Z,14.88
2023-03-03T11:13:11.345Z,16.30
2023-03-03T11:16:15.964Z,11.25
2023-03-03T11:19:02.359Z,12.35
2023-03-03T11:21:36.295Z,15.30
2023-03-03T11:24:28.996Z,15.70
2023-03-03T11:27:13.803Z,13.88
2023-03-03T11:29:57.480Z,15.13
2023-03-03T11:32:37.333Z,13.23
2023-03-03T11:35:20.313Z,13.27
2023-03-03T11:37:57.342Z,12.77
2023-03-03T11:40:28.350Z,13.80
2023-03-03T11:43:04.773Z,13.45
2023-03-03T11:45:40.910Z,9.55
2023-03-03T11:48:19.290Z,11.70
2023-03-03T11:50:56.482Z,11.38
2023-03-03T11:53:43.954Z,10.45
2023-03-03T11:56:22.043Z,12.57
2023-03-03T11:58:59.468Z,12.82
2023-03-03T12:01:33.470Z,11.40
2023-03-03T12:04:05.601Z,6.43
2023-03-03T12:06:42.018Z,14.75
2023-03-03T12:09:32.110Z,13.20
2023-03-03T12:12:07.229Z,10.27
2023-03-03T12:14:55.312Z,12.13
2023-03-03T12:17:50.648Z,9.95
2023-03-03T12:20:33.492Z,11.75
2023-03-03T12:26:03.584Z,10.45
2023-03-03T12:28:37.780Z,13.05
2023-03-03T12:31:24.939Z,9.90
2023-03-03T12:33:57.009Z,14.70
2023-03-03T12:37:05.558Z,13.80
2023-03-03T12:39:43.839Z,11.70
2023-03-03T12:42:19.060Z,11.38
2023-03-03T12:44:55.467Z,11.57
2023-03-03T12:47:30.394Z,11.60
2023-03-03T12:50:14.516Z,10.40
2023-03-03T12:52:51.373Z,8.13
2023-03-03T12:55:28.158Z,10.88
2023-03-03T12:58:04.093Z,9.45
2023-03-03T13:00:50.447Z,10.48
2023-03-03T13:03:32.128Z,11.98
2023-03-03T13:06:08.458Z,9.23
2023-03-03T13:08:51.153Z,11.00
2023-03-03T13:11:34.863Z,12.68
2023-03-03T13:14:14.819Z,10.95
2023-03-03T13:16:50.795Z,11.43
2023-03-03T13:19:25.234Z,10.30
2023-03-03T13:21:58.465Z,13.10
2023-03-03T13:24:34.590Z,10.25
2023-03-03T13:27:09.193Z,12.55
2023-03-03T13:29:42.787Z,10.15
2023-03-03T13:32:15.889Z,14.98
2023-03-03T13:34:52.682Z,13.65
2023-03-03T13:37:23.649Z,12.20
2023-03-03T13:40:01.244Z,11.15
2023-03-03T13:42:37.607Z,14.75
2023-03-03T13:45:17.745Z,5.05
2023-03-03T13:47:54.555Z,12.77
2023-03-03T13:50:28.896Z,11.32
2023-03-03T13:53:11.161Z,14.20
2023-03-03T13:55:44.622Z,12.70
2023-03-03T13:58:23.910Z,10.93
2023-03-03T14:01:02.858Z,11.57
2023-03-03T14:03:59.872Z,11.80
2023-03-03T14:06:29.745Z,10.25
2023-03-03T14:09:10.623Z,11.88
2023-03-03T14:11:48.027Z,12.98
2023-03-03T14:14:38.584Z,13.10
2023-03-03T14:17:14.265Z,10.93
2023-03-03T14:19:45.790Z,14.02
2023-03-03T14:22:24.135Z,15.23
2023-03-03T14:25:03.323Z,10.88
2023-03-03T14:27:40.243Z,10.68
2023-03-03T14:30:35.072Z,12.38
2023-03-03T14:33:22.463Z,13.77
2023-03-03T14:36:02.357Z,9.35
2023-03-03T14:38:49.372Z,9.00
2023-03-03T14:41:20.922Z,16.48
2023-03-03T14:44:01.653Z,10.40
2023-03-03T14:46:41.762Z,14.13
2023-03-03T14:49:16.348Z,13.18
2023-03-03T14:51:47.344Z,16.25
2023-03-03T14:54:22.492Z,12.18
2023-03-03T14:57:00.631Z,18.17
2023-03-03T14:59:31.840Z,15.32
2023-03-03T15:02:38.525Z,15.77
2023-03-03T15:05:22.711Z,18.90
2023-03-03T15:07:55.029Z,17.23
2023-03-03T15:10:35.646Z,19.08
2023-03-03T15:13:36.521Z,19.13
2023-03-03T15:16:17.842Z,16.92
2023-03-03T15:19:11.648Z,17.75
2023-03-03T15:21:45.026Z,21.60
2023-03-03T15:24:20.222Z,17.55
2023-03-03T15:26:53.833Z,15.38
2023-03-03T15:29:28.587Z,17.05
2023-03-03T15:32:03.414Z,17.67
2023-03-03T15:34:41.384Z,20.15
2023-03-03T15:37:26.076Z,19.70
2023-03-03T15:40:04.062Z,20.88
2023-03-03T15:42:39.674Z,17.95
2023-03-03T15:45:18.219Z,23.38
2023-03-03T15:48:13.995Z,24.20
2023-03-03T15:50:51.655Z,24.88
2023-03-03T15:53:36.990Z,20.23
2023-03-03T15:56:17.245Z,24.10
2023-03-03T15:59:16.885Z,22.23
2023-03-03T16:01:54.645Z,19.88
2023-03-03T16:04:27.236Z,24.63
2023-03-03T16:07:01.760Z,23.75
2023-03-03T16:09:41.279Z,20.40
2023-03-03T16:12:18.538Z,22.27
2023-03-03T16:15:08.245Z,19.13
2023-03-03T16:17:43.936Z,16.42
2023-03-03T16:20:22.551Z,16.25
2023-03-03T16:23:10.265Z,22.67
2023-03-03T16:25:52.111Z,20.30
2023-03-03T16:28:24.218Z,19.20
2023-03-03T16:30:59.432Z,21.42
2023-03-03T16:33:36.286Z,20.65
2023-03-03T16:36:14.076Z,15.52
2023-03-03T16:38:46.240Z,20.20
2023-03-03T16:41:20.460Z,19.15
2023-03-03T16:44:00.195Z,19.13
2023-03-03T16:46:35.065Z,20.65
2023-03-03T16:49:10.058Z,19.48
2023-03-03T16:51:49.876Z,19.08
2023-03-03T16:54:28.150Z,20.45
2023-03-03T16:57:10.353Z,17.98
2023-03-03T16:59:48.789Z,18.02
2023-03-03T17:02:53.720Z,17.85
2023-03-03T17:05:30.641Z,20.00
2023-03-03T17:08:19.915Z,20.40
2023-03-03T17:10:53.236Z,19.40
2023-03-03T17:13:38.752Z,19.75
2023-03-03T17:16:15.193Z,18.08
2023-03-03T17:18:57.908Z,17.20
2023-03-03T17:21:35.115Z,17.35
2023-03-03T17:24:18.790Z,20.70
2023-03-03T17:27:08.372Z,20.00
2023-03-03T17:29:55.380Z,18.55
2023-03-03T17:32:45.737Z,18.45
2023-03-03T17:35:28.243Z,19.73
2023-03-03T17:38:06.625Z,19.38
2023-03-03T17:41:00.890Z,17.98
2023-03-03T17:43:38.670Z,17.13
2023-03-03T17:46:16.681Z,21.58
2023-03-03T17:49:08.711Z,21.33
2023-03-03T17:52:11.067Z,21.92
2023-03-03T17:54:55.672Z,25.20
2023-03-03T17:57:42.846Z,24.13
2023-03-03T18:00:29.598Z,24.90
2023-03-03T18:03:35.617Z,27.27
2023-03-03T18:06:25.369Z,22.52
2023-03-03T18:09:14.654Z,27.38
2023-03-03T18:11:56.406Z,26.10
2023-03-03T18:14:52.132Z,29.38
2023-03-03T18:17:43.769Z,25.48
2023-03-03T18:20:42.296Z,25.90
2023-03-03T18:23:34.091Z,34.90
2023-03-03T18:26:03.709Z,34.17
2023-03-03T18:28:47.419Z,34.63
2023-03-03T18:31:27.233Z,34.13
2023-03-03T18:34:05.412Z,31.15
2023-03-03T18:36:39.494Z,22.73
2023-03-03T18:39:13.700Z,28.35
2023-03-03T18:42:09.492Z,3.30
2023-03-03T18:44:37.784Z,33.83
2023-03-03T18:47:07.606Z,27.88
2023-03-03T18:50:04.600Z,34.42
2023-03-03T18:52:34.885Z,29.63
2023-03-03T18:55:20.176Z,30.02
2023-03-03T18:58:29.856Z,38.63
2023-03-03T19:01:00.886Z,31.95
2023-03-03T19:03:35.276Z,30.17
2023-03-03T19:06:04.565Z,38.08
2023-03-03T19:08:51.289Z,42.97
2023-03-03T19:11:37.609Z,38.95
2023-03-03T19:14:32.668Z,33.97
2023-03-03T19:17:21.760Z,34.05
2023-03-03T19:20:06.918Z,42.70
2023-03-03T19:22:46.020Z,38.83
2023-03-03T19:25:24.643Z,36.55
2023-03-03T19:28:19.754Z,43.00
2023-03-03T19:30:56.273Z,32.20
2023-03-03T19:33:43.793Z,39.65
2023-03-03T19:36:29.601Z,36.80
2023-03-03T19:39:16.143Z,26.88
2023-03-03T19:42:05.070Z,27.75
2023-03-03T19:44:50.022Z,32.88
2023-03-03T19:47:28.632Z,25.85
2023-03-03T19:50:08.812Z,38.83
2023-03-03T19:52:44.668Z,35.17
2023-03-03T19:55:25.276Z,37.55
2023-03-03T19:58:05.546Z,33.65
2023-03-03T20:00:41.541Z,32.97
2023-03-03T20:03:58.436Z,36.15
2023-03-03T20:06:48.275Z,27.95
2023-03-03T20:09:27.834Z,33.28
2023-03-03T20:12:08.043Z,32.38
2023-03-03T20:14:46.246Z,37.85
2023-03-03T20:17:38.729Z,31.15
2023-03-03T20:20:24.151Z,32.00
2023-03-03T20:22:57.808Z,26.20
2023-03-03T20:25:35.578Z,21.40
2023-03-03T20:28:09.720Z,22.85
2023-03-03T20:30:54.578Z,27.55
2023-03-03T20:33:45.154Z,31.02
2023-03-03T20:36:25.210Z,31.48
2023-03-03T20:39:04.614Z,22.42
2023-03-03T20:41:51.158Z,26.90
2023-03-03T20:44:30.545Z,25.08
2023-03-03T20:47:05.553Z,27.67
2023-03-03T20:49:47.793Z,31.55
2023-03-03T20:52:24.823Z,30.45
2023-03-03T20:55:00.948Z,20.77
2023-03-03T20:57:39.057Z,29.08
2023-03-03T21:00:15.206Z,26.25
2023-03-03T21:02:50.730Z,23.60
2023-03-03T21:05:22.678Z,23.77
2023-03-03T21:07:55.860Z,27.85
2023-03-03T21:10:25.316Z,23.48
2023-03-03T21:12:56.877Z,12.00
2023-03-03T21:15:29.333Z,15.82
2023-03-03T21:17:59.562Z,32.13
2023-03-03T21:20:30.500Z,23.05
2023-03-03T21:22:59.737Z,17.38
2023-03-03T21:25:53.465Z,32.25
2023-03-03T21:28:26.178Z,18.27
2023-03-03T21:31:22.766Z,20.02
2023-03-03T21:33:53.697Z,21.58
2023-03-03T21:36:24.494Z,20.50
2023-03-03T21:38:54.534Z,20.55
2023-03-03T21:41:22.904Z,23.05
2023-03-03T21:43:53.964Z,21.25
2023-03-03T21:46:23.585Z,10.15
2023-03-03T21:48:52.292Z,16.50
2023-03-03T21:51:21.862Z,17.13
2023-03-03T21:53:49.971Z,18.98
2023-03-03T21:56:18.098Z,21.77
2023-03-03T21:58:46.329Z,18.63
2023-03-03T22:01:16.104Z,10.30
2023-03-03T22:03:45.928Z,16.02
2023-03-03T22:06:14.012Z,14.77
2023-03-03T22:08:42.408Z,9.27
2023-03-03T22:11:10.494Z,15.98
2023-03-03T22:13:40.051Z,18.08
2023-03-03T22:16:09.077Z,14.68
2023-03-03T22:18:38.582Z,14.57
2023-03-03T22:21:07.354Z,5.65
2023-03-03T22:23:35.872Z,8.30
2023-03-03T22:26:04.060Z,10.20
2023-03-03T22:28:32.184Z,12.52
2023-03-03T22:31:00.688Z,17.00
2023-03-03T22:33:28.814Z,15.07
2023-03-03T22:35:58.656Z,14.98
2023-03-03T22:38:26.943Z,14.55
2023-03-03T22:40:56.155Z,12.35
2023-03-03T22:43:25.695Z,12.15
2023-03-03T22:45:54.138Z,11.10
2023-03-03T22:48:23.145Z,10.73
2023-03-03T22:50:51.619Z,8.43
2023-03-03T22:53:22.056Z,13.13
2023-03-03T22:55:50.227Z,15.73
2023-03-03T22:58:20.122Z,14.63
2023-03-03T23:00:48.925Z,13.77
2023-03-03T23:03:17.395Z,14.40
2023-03-03T23:05:45.620Z,8.73
2023-03-03T23:08:16.326Z,13.27
2023-03-03T23:10:46.747Z,13.00
2023-03-03T23:13:15.483Z,11.77
2023-03-03T23:15:44.067Z,12.68
2023-03-03T23:18:12.206Z,9.30
2023-03-03T23:20:42.658Z,11.95
2023-03-03T23:23:11.203Z,11.25
2023-03-03T23:25:39.612Z,10.63
2023-03-03T23:28:09.282Z,11.13
2023-03-03T23:30:37.680Z,8.52
2023-03-03T23:33:05.848Z,6.53
2023-03-03T23:35:34.151Z,11.63
2023-03-03T23:38:02.387Z,5.20
2023-03-03T23:40:30.537Z,6.68
2023-03-03T23:42:58.956Z,13.45
2023-03-03T23:45:28.999Z,10.40
2023-03-03T23:47:57.152Z,12.75
2023-03-03T23:50:25.265Z,8.65
2023-03-03T23:52:53.492Z,9.57
2023-03-03T23:55:21.843Z,10.63
2023-03-03T23:57:49.925Z,9.63
